createdAt,value
2017-11-21T00:00:54.358Z,0
2017-11-21T00:02:04.700Z,0
2017-11-21T00:03:14.739Z,0
2017-11-21T00:04:24.735Z,0
2017-11-21T00:05:34.639Z,0
2017-11-21T00:06:44.691Z,0
2017-11-21T00:07:54.749Z,0
2017-11-21T00:09:05.023Z,0
2017-11-21T00:10:15.330Z,0
2017-11-21T00:11:25.673Z,0
2017-11-21T00:12:35.967Z,0
2017-11-21T00:13:46.230Z,0
2017-11-21T00:14:56.323Z,0
2017-11-21T00:16:06.643Z,0
2017-11-21T00:17:16.663Z,0
2017-11-21T00:18:26.967Z,0
2017-11-21T00:19:37.268Z,0
2017-11-21T00:20:47.556Z,0
2017-11-21T00:21:57.572Z,0
2017-11-21T00:23:07.615Z,0
2017-11-21T00:24:18.043Z,0
2017-11-21T00:25:28.360Z,0
2017-11-21T00:26:38.623Z,0
2017-11-21T00:27:48.673Z,0
2017-11-21T00:28:59.065Z,0
2017-11-21T00:30:09.204Z,0
2017-11-21T00:31:19.481Z,0
2017-11-21T00:32:29.738Z,0
2017-11-21T00:33:39.900Z,0
2017-11-21T00:34:50.150Z,0
2017-11-21T00:35:59.912Z,0
2017-11-21T00:37:09.551Z,0
2017-11-21T00:38:19.818Z,0
2017-11-21T00:39:29.951Z,0
2017-11-21T00:40:39.930Z,0
2017-11-21T00:41:50.218Z,0
2017-11-21T00:43:00.541Z,0
2017-11-21T00:44:10.566Z,0
2017-11-21T00:45:20.837Z,0
2017-11-21T00:46:30.830Z,0
2017-11-21T00:47:41.084Z,0
2017-11-21T00:48:51.440Z,0
2017-11-21T00:50:01.447Z,0
2017-11-21T00:51:11.072Z,0
2017-11-21T00:52:21.711Z,0
2017-11-21T00:53:32.001Z,0
2017-11-21T00:54:41.986Z,0
2017-11-21T00:56:24.208Z,0
2017-11-21T00:57:34.496Z,0
2017-11-21T00:58:44.761Z,0
2017-11-21T00:59:54.801Z,0
2017-11-21T01:01:05.314Z,0
2017-11-21T01:02:15.235Z,0
2017-11-21T01:03:25.656Z,0
2017-11-21T01:04:35.624Z,0
2017-11-21T01:05:45.371Z,0
2017-11-21T01:06:55.445Z,0
2017-11-21T01:08:05.315Z,0
2017-11-21T01:09:15.600Z,0
2017-11-21T01:10:25.893Z,0
2017-11-21T01:11:36.227Z,0
2017-11-21T01:12:46.492Z,0
2017-11-21T01:13:56.755Z,0
2017-11-21T01:15:06.810Z,0
2017-11-21T01:16:16.533Z,0
2017-11-21T01:17:26.794Z,0
2017-11-21T01:18:37.062Z,0
2017-11-21T01:19:47.353Z,0
2017-11-21T01:20:57.600Z,0
2017-11-21T01:22:07.892Z,0
2017-11-21T01:23:18.203Z,0
2017-11-21T01:24:28.218Z,0
2017-11-21T01:25:38.488Z,0
2017-11-21T01:26:48.727Z,0
2017-11-21T01:27:58.978Z,0
2017-11-21T01:29:09.246Z,0
2017-11-21T01:30:19.500Z,0
2017-11-21T01:31:29.757Z,0
2017-11-21T01:32:40.289Z,0
2017-11-21T01:33:50.560Z,0
2017-11-21T01:35:00.253Z,0
2017-11-21T01:36:10.491Z,0
2017-11-21T01:37:20.744Z,0
2017-11-21T01:38:30.749Z,0
2017-11-21T01:39:41.056Z,0
2017-11-21T01:40:51.137Z,0
2017-11-21T01:42:01.407Z,0
2017-11-21T01:43:11.660Z,0
2017-11-21T01:44:21.935Z,0
2017-11-21T01:45:32.207Z,0
2017-11-21T01:46:42.453Z,0
2017-11-21T01:47:52.727Z,0
2017-11-21T01:49:02.995Z,0
2017-11-21T01:50:13.265Z,0
2017-11-21T01:51:23.539Z,0
2017-11-21T01:52:33.801Z,0
2017-11-21T01:53:43.918Z,0
2017-11-21T01:54:54.205Z,0
2017-11-21T01:56:04.544Z,0
2017-11-21T01:57:14.825Z,0
2017-11-21T01:58:25.079Z,0
2017-11-21T01:59:35.381Z,0
2017-11-21T02:00:45.669Z,0
2017-11-21T02:01:55.919Z,0
2017-11-21T02:03:06.182Z,0
2017-11-21T02:04:16.102Z,0
2017-11-21T02:05:26.472Z,0
2017-11-21T02:06:36.515Z,0
2017-11-21T02:07:46.932Z,0
2017-11-21T02:08:57.193Z,0
2017-11-21T02:10:06.806Z,0
2017-11-21T02:11:17.079Z,0
2017-11-21T02:12:27.483Z,0
2017-11-21T02:13:37.458Z,0
2017-11-21T02:14:47.737Z,0
2017-11-21T02:15:58.042Z,0
2017-11-21T02:17:08.373Z,0
2017-11-21T02:18:18.642Z,0
2017-11-21T02:19:28.927Z,0
2017-11-21T02:20:38.828Z,0
2017-11-21T02:21:48.743Z,0
2017-11-21T02:22:59.010Z,0
2017-11-21T02:24:09.291Z,0
2017-11-21T02:25:19.781Z,0
2017-11-21T02:26:30.017Z,0
2017-11-21T02:27:40.283Z,0
2017-11-21T02:28:50.543Z,0
2017-11-21T02:30:01.331Z,0
2017-11-21T02:31:11.674Z,0
2017-11-21T02:32:21.685Z,0
2017-11-21T02:33:31.797Z,0
2017-11-21T02:34:42.117Z,0
2017-11-21T02:35:52.086Z,0
2017-11-21T02:37:02.535Z,0
2017-11-21T02:38:12.793Z,0
2017-11-21T02:39:22.802Z,0
2017-11-21T02:40:33.061Z,0
2017-11-21T02:41:43.371Z,0
2017-11-21T02:42:53.341Z,0
2017-11-21T02:44:03.629Z,0
2017-11-21T02:45:14.452Z,0
2017-11-21T02:46:24.786Z,0
2017-11-21T02:47:35.086Z,0
2017-11-21T02:48:45.143Z,0
2017-11-21T02:49:55.434Z,0
2017-11-21T02:51:05.711Z,0
2017-11-21T02:52:15.611Z,0
2017-11-21T02:53:25.954Z,0
2017-11-21T02:54:36.238Z,0
2017-11-21T02:55:46.533Z,0
2017-11-21T02:56:56.795Z,0
2017-11-21T02:58:06.853Z,0
2017-11-21T02:59:16.849Z,0
2017-11-21T03:00:27.108Z,0
2017-11-21T03:01:36.818Z,0
2017-11-21T03:02:47.073Z,0
2017-11-21T03:03:57.350Z,0
2017-11-21T03:05:07.471Z,0
2017-11-21T03:06:17.751Z,0
2017-11-21T03:07:28.014Z,0
2017-11-21T03:08:38.404Z,0
2017-11-21T03:09:48.286Z,0
2017-11-21T03:10:58.466Z,0
2017-11-21T03:12:08.725Z,0
2017-11-21T03:13:18.972Z,0
2017-11-21T03:14:28.937Z,0
2017-11-21T03:15:39.237Z,0
2017-11-21T03:16:49.431Z,0
2017-11-21T03:17:59.708Z,0
2017-11-21T03:19:09.632Z,0
2017-11-21T03:20:19.915Z,0
2017-11-21T03:21:29.898Z,0
2017-11-21T03:22:40.180Z,0
2017-11-21T03:23:50.443Z,0
2017-11-21T03:25:00.762Z,0
2017-11-21T03:26:10.744Z,0
2017-11-21T03:27:21.025Z,0
2017-11-21T03:28:31.285Z,0
2017-11-21T03:29:41.621Z,0
2017-11-21T03:30:51.137Z,0
2017-11-21T03:32:01.394Z,0
2017-11-21T03:33:11.647Z,0
2017-11-21T03:34:21.691Z,0
2017-11-21T03:35:31.964Z,0
2017-11-21T03:36:41.992Z,0
2017-11-21T03:37:52.077Z,0
2017-11-21T03:39:02.046Z,0
2017-11-21T03:40:12.635Z,0
2017-11-21T03:41:22.908Z,0
2017-11-21T03:42:33.201Z,0
2017-11-21T03:43:43.457Z,0
2017-11-21T03:44:53.157Z,0
2017-11-21T03:46:03.437Z,0
2017-11-21T03:47:13.873Z,0
2017-11-21T03:48:24.164Z,0
2017-11-21T03:49:34.459Z,0
2017-11-21T03:50:44.731Z,0
2017-11-21T03:51:55.355Z,0
2017-11-21T03:53:05.667Z,0
2017-11-21T03:54:15.704Z,0
2017-11-21T03:55:25.973Z,0
2017-11-21T03:56:36.257Z,0
2017-11-21T03:57:46.523Z,0
2017-11-21T03:58:56.895Z,0
2017-11-21T04:00:06.935Z,0
2017-11-21T04:01:17.175Z,0
2017-11-21T04:02:27.421Z,0
2017-11-21T04:03:37.302Z,0
2017-11-21T04:04:47.652Z,0
2017-11-21T04:05:57.921Z,0
2017-11-21T04:07:08.235Z,0
2017-11-21T04:08:18.310Z,0
2017-11-21T04:09:28.280Z,0
2017-11-21T04:10:38.770Z,0
2017-11-21T04:11:49.019Z,0
2017-11-21T04:12:59.307Z,0
2017-11-21T04:14:09.236Z,0
2017-11-21T04:15:19.208Z,0
2017-11-21T04:16:29.493Z,0
2017-11-21T04:17:39.467Z,0
2017-11-21T04:18:49.829Z,0
2017-11-21T04:20:00.091Z,0
2017-11-21T04:21:10.849Z,0
2017-11-21T04:22:20.579Z,0
2017-11-21T04:23:30.837Z,0
2017-11-21T04:24:41.120Z,0
2017-11-21T04:25:51.627Z,0
2017-11-21T04:27:01.507Z,0
2017-11-21T04:28:11.749Z,0
2017-11-21T04:29:22.029Z,0
2017-11-21T04:30:32.299Z,0
2017-11-21T04:31:42.603Z,0
2017-11-21T04:32:52.912Z,0
2017-11-21T04:34:02.788Z,0
2017-11-21T04:35:12.556Z,0
2017-11-21T04:36:22.832Z,0
2017-11-21T04:37:33.253Z,0
2017-11-21T04:38:43.522Z,0
2017-11-21T04:39:53.834Z,0
2017-11-21T04:41:04.133Z,0
2017-11-21T04:42:13.753Z,0
2017-11-21T04:43:23.783Z,0
2017-11-21T04:44:33.546Z,0
2017-11-21T04:45:43.535Z,0
2017-11-21T04:46:53.542Z,0
2017-11-21T04:48:03.841Z,0
2017-11-21T04:49:13.838Z,0
2017-11-21T04:50:24.096Z,0
2017-11-21T04:51:34.167Z,0
2017-11-21T04:52:44.452Z,0
2017-11-21T04:53:54.446Z,0
2017-11-21T04:55:04.380Z,0
2017-11-21T04:56:14.642Z,0
2017-11-21T04:57:24.930Z,0
2017-11-21T04:58:34.649Z,0
2017-11-21T04:59:44.381Z,0
2017-11-21T05:00:54.675Z,0
2017-11-21T05:02:04.660Z,0
2017-11-21T05:03:14.577Z,0
2017-11-21T05:04:24.996Z,0
2017-11-21T05:05:34.986Z,0
2017-11-21T05:06:45.260Z,0
2017-11-21T05:07:55.596Z,0
2017-11-21T05:09:05.845Z,0
2017-11-21T05:10:15.776Z,0
2017-11-21T05:11:26.037Z,0
2017-11-21T05:12:35.882Z,0
2017-11-21T05:13:46.144Z,0
2017-11-21T05:14:56.407Z,0
2017-11-21T05:16:06.837Z,0
2017-11-21T05:17:17.090Z,0
2017-11-21T05:18:27.083Z,0
2017-11-21T05:19:37.458Z,0
2017-11-21T05:20:47.471Z,0
2017-11-21T05:21:57.796Z,0
2017-11-21T05:23:08.116Z,0
2017-11-21T05:24:18.033Z,0
2017-11-21T05:25:27.674Z,0
2017-11-21T05:26:37.938Z,0
2017-11-21T05:27:47.949Z,0
2017-11-21T05:28:58.272Z,0
2017-11-21T05:30:08.579Z,0
2017-11-21T05:31:18.830Z,0
2017-11-21T05:32:29.098Z,0
2017-11-21T05:33:39.110Z,0
2017-11-21T05:34:49.351Z,0
2017-11-21T05:35:59.660Z,0
2017-11-21T05:37:09.928Z,0
2017-11-21T05:38:20.189Z,0
2017-11-21T05:39:30.442Z,0
2017-11-21T05:40:40.452Z,0
2017-11-21T05:41:50.768Z,0
2017-11-21T05:43:00.766Z,0
2017-11-21T05:44:11.069Z,0
2017-11-21T05:45:21.088Z,0
2017-11-21T05:46:31.402Z,0
2017-11-21T05:47:41.676Z,0
2017-11-21T05:48:52.024Z,0
2017-11-21T05:50:02.368Z,0
2017-11-21T05:51:12.618Z,0
2017-11-21T05:52:22.936Z,0
2017-11-21T05:53:33.209Z,0
2017-11-21T05:54:43.535Z,0
2017-11-21T05:55:53.574Z,0
2017-11-21T05:57:03.573Z,0
2017-11-21T05:58:13.848Z,0
2017-11-21T05:59:24.149Z,0
2017-11-21T06:00:34.450Z,0
2017-11-21T06:01:44.480Z,0
2017-11-21T06:02:54.791Z,0
2017-11-21T06:04:04.807Z,0
2017-11-21T06:05:14.856Z,0
2017-11-21T06:06:25.209Z,0
2017-11-21T06:07:35.529Z,0
2017-11-21T06:08:45.899Z,0
2017-11-21T06:09:56.160Z,0
2017-11-21T06:11:06.503Z,0
2017-11-21T06:12:16.783Z,0
2017-11-21T06:13:26.778Z,4
2017-11-21T06:14:37.098Z,4
2017-11-21T06:15:47.182Z,0
2017-11-21T06:16:57.461Z,4
2017-11-21T06:18:07.778Z,4
2017-11-21T06:19:18.062Z,4
2017-11-21T06:20:28.078Z,4
2017-11-21T06:21:38.107Z,4
2017-11-21T06:22:47.750Z,8
2017-11-21T06:23:58.038Z,8
2017-11-21T06:25:08.077Z,12
2017-11-21T06:26:18.105Z,16
2017-11-21T06:27:28.458Z,16
2017-11-21T06:28:38.727Z,20
2017-11-21T06:29:48.573Z,24
2017-11-21T06:30:58.973Z,20
2017-11-21T06:32:08.961Z,24
2017-11-21T06:33:19.004Z,28
2017-11-21T06:34:28.988Z,32
2017-11-21T06:35:39.259Z,36
2017-11-21T06:36:49.543Z,44
2017-11-21T06:37:59.846Z,44
2017-11-21T06:39:10.162Z,48
2017-11-21T06:40:20.424Z,44
2017-11-21T06:41:30.699Z,44
2017-11-21T06:42:40.311Z,56
2017-11-21T06:43:50.593Z,64
2017-11-21T06:45:00.463Z,72
2017-11-21T06:46:10.521Z,84
2017-11-21T06:47:20.802Z,92
2017-11-21T06:48:31.060Z,100
2017-11-21T06:49:40.967Z,96
2017-11-21T06:50:50.889Z,100
2017-11-21T06:52:00.883Z,108
2017-11-21T06:53:11.267Z,120
2017-11-21T06:54:21.566Z,132
2017-11-21T06:55:31.589Z,136
2017-11-21T06:56:41.553Z,172
2017-11-21T06:57:51.846Z,188
2017-11-21T06:59:02.133Z,200
2017-11-21T07:00:12.148Z,220
2017-11-21T07:01:22.041Z,248
2017-11-21T07:02:32.297Z,284
2017-11-21T07:03:42.569Z,332
2017-11-21T07:04:53.070Z,352
2017-11-21T07:06:03.351Z,408
2017-11-21T07:07:13.258Z,420
2017-11-21T07:08:23.394Z,436
2017-11-21T07:09:33.657Z,432
2017-11-21T07:10:43.952Z,428
2017-11-21T07:11:54.234Z,412
2017-11-21T07:13:04.734Z,424
2017-11-21T07:14:15.026Z,448
2017-11-21T07:15:25.499Z,464
2017-11-21T07:16:35.795Z,424
2017-11-21T07:17:46.105Z,400
2017-11-21T07:18:56.373Z,388
2017-11-21T07:20:06.376Z,380
2017-11-21T07:21:16.706Z,424
2017-11-21T07:22:26.977Z,520
2017-11-21T07:23:37.261Z,540
2017-11-21T07:24:47.246Z,528
2017-11-21T07:25:57.586Z,504
2017-11-21T07:27:07.875Z,468
2017-11-21T07:28:18.151Z,432
2017-11-21T07:29:28.295Z,412
2017-11-21T07:30:38.560Z,416
2017-11-21T07:31:48.474Z,440
2017-11-21T07:32:58.630Z,476
2017-11-21T07:34:08.687Z,536
2017-11-21T07:35:18.825Z,616
2017-11-21T07:36:29.132Z,652
2017-11-21T07:37:39.384Z,716
2017-11-21T07:38:49.678Z,772
2017-11-21T07:39:59.942Z,844
2017-11-21T07:41:10.196Z,976
2017-11-21T07:42:20.468Z,1036
2017-11-21T07:43:30.424Z,1052
2017-11-21T07:44:40.489Z,1112
2017-11-21T07:45:50.209Z,1208
2017-11-21T07:47:00.161Z,1220
2017-11-21T07:48:10.145Z,1116
2017-11-21T07:49:20.420Z,952
2017-11-21T07:50:30.407Z,864
2017-11-21T07:51:40.397Z,856
2017-11-21T07:52:50.786Z,832
2017-11-21T07:54:01.054Z,860
2017-11-21T07:55:11.065Z,884
2017-11-21T07:56:20.953Z,920
2017-11-21T07:57:30.900Z,1044
2017-11-21T07:58:41.253Z,1096
2017-11-21T07:59:51.537Z,1044
2017-11-21T08:01:02.002Z,1048
2017-11-21T08:02:12.282Z,1036
2017-11-21T08:03:22.697Z,1092
2017-11-21T08:04:32.737Z,1160
2017-11-21T08:05:43.144Z,1292
2017-11-21T08:06:53.173Z,1508
2017-11-21T08:08:03.162Z,1516
2017-11-21T08:09:13.152Z,1292
2017-11-21T08:10:23.439Z,1128
2017-11-21T08:11:33.749Z,1012
2017-11-21T08:12:44.068Z,956
2017-11-21T08:13:53.737Z,900
2017-11-21T08:15:04.001Z,812
2017-11-21T08:16:14.306Z,776
2017-11-21T08:17:24.583Z,836
2017-11-21T08:18:34.844Z,840
2017-11-21T08:19:44.859Z,840
2017-11-21T08:20:55.149Z,808
2017-11-21T08:22:05.296Z,780
2017-11-21T08:23:15.339Z,748
2017-11-21T08:24:25.708Z,716
2017-11-21T08:25:35.938Z,736
2017-11-21T08:26:46.285Z,756
2017-11-21T08:27:56.383Z,796
2017-11-21T08:29:06.645Z,784
2017-11-21T08:30:16.847Z,816
2017-11-21T08:31:26.864Z,860
2017-11-21T08:32:37.245Z,936
2017-11-21T08:33:47.507Z,1060
2017-11-21T08:34:57.499Z,1232
2017-11-21T08:36:07.943Z,1344
2017-11-21T08:37:18.205Z,1328
2017-11-21T08:38:28.517Z,1288
2017-11-21T08:39:38.843Z,1224
2017-11-21T08:40:49.123Z,1264
2017-11-21T08:41:59.534Z,1360
2017-11-21T08:43:09.843Z,1488
2017-11-21T08:44:19.884Z,1628
2017-11-21T08:45:30.168Z,1788
2017-11-21T08:46:40.484Z,1928
2017-11-21T08:47:50.856Z,1972
2017-11-21T08:49:00.898Z,2024
2017-11-21T08:50:10.663Z,1992
2017-11-21T08:51:20.773Z,2012
2017-11-21T08:52:31.108Z,2000
2017-11-21T08:53:41.611Z,1968
2017-11-21T08:54:51.921Z,1844
2017-11-21T08:56:01.945Z,1632
2017-11-21T08:57:11.957Z,1400
2017-11-21T08:58:21.863Z,1276
2017-11-21T08:59:31.887Z,1248
2017-11-21T09:00:42.361Z,1224
2017-11-21T09:01:52.347Z,1296
2017-11-21T09:03:02.413Z,1416
2017-11-21T09:04:12.414Z,1556
2017-11-21T09:05:22.709Z,1692
2017-11-21T09:06:32.988Z,1836
2017-11-21T09:07:43.249Z,2004
2017-11-21T09:08:53.643Z,1988
2017-11-21T09:10:03.927Z,2056
2017-11-21T09:11:14.271Z,1868
2017-11-21T09:12:24.630Z,1748
2017-11-21T09:13:34.304Z,1884
2017-11-21T09:14:44.622Z,1996
2017-11-21T09:15:54.899Z,2044
2017-11-21T09:17:05.205Z,2204
2017-11-21T09:18:15.483Z,2132
2017-11-21T09:19:25.744Z,2160
2017-11-21T09:20:36.001Z,2328
2017-11-21T09:21:46.162Z,2336
2017-11-21T09:22:56.449Z,2208
2017-11-21T09:24:38.649Z,1896
2017-11-21T09:25:48.925Z,1780
2017-11-21T09:26:58.931Z,1716
2017-11-21T09:28:09.253Z,1712
2017-11-21T09:29:19.527Z,1724
2017-11-21T09:30:29.914Z,1784
2017-11-21T09:31:40.192Z,1768
2017-11-21T09:32:50.485Z,1688
2017-11-21T09:34:00.482Z,1736
2017-11-21T09:35:10.495Z,1696
2017-11-21T09:36:20.762Z,1612
2017-11-21T09:37:30.528Z,1720
2017-11-21T09:38:41.064Z,1736
2017-11-21T09:39:51.360Z,1756
2017-11-21T09:41:01.376Z,1696
2017-11-21T09:42:11.373Z,1760
2017-11-21T09:43:21.695Z,2016
2017-11-21T09:44:32.041Z,2236
2017-11-21T09:45:42.345Z,2172
2017-11-21T09:46:52.451Z,2288
2017-11-21T09:48:02.361Z,2316
2017-11-21T09:49:12.648Z,2584
2017-11-21T09:50:22.653Z,3064
2017-11-21T09:51:32.583Z,3344
2017-11-21T09:52:42.577Z,3168
2017-11-21T09:53:52.540Z,3168
2017-11-21T09:55:03.071Z,3376
2017-11-21T09:56:13.333Z,3732
2017-11-21T09:57:23.344Z,4328
2017-11-21T09:58:33.023Z,4512
2017-11-21T09:59:43.388Z,3948
2017-11-21T10:00:53.672Z,4376
2017-11-21T10:02:03.548Z,4172
2017-11-21T10:03:13.564Z,3816
2017-11-21T10:04:23.538Z,3712
2017-11-21T10:05:33.813Z,3920
2017-11-21T10:06:44.097Z,3932
2017-11-21T10:07:54.414Z,4140
2017-11-21T10:09:04.277Z,4280
2017-11-21T10:10:14.585Z,4432
2017-11-21T10:11:24.866Z,4720
2017-11-21T10:12:35.499Z,5064
2017-11-21T10:13:45.602Z,5288
2017-11-21T10:14:55.912Z,5216
2017-11-21T10:16:05.598Z,4764
2017-11-21T10:17:16.149Z,4424
2017-11-21T10:18:26.151Z,3944
2017-11-21T10:19:36.226Z,3756
2017-11-21T10:20:45.960Z,3524
2017-11-21T10:21:56.238Z,3616
2017-11-21T10:23:06.559Z,3756
2017-11-21T10:24:16.069Z,3852
2017-11-21T10:25:26.370Z,4120
2017-11-21T10:26:36.648Z,4056
2017-11-21T10:27:46.937Z,3920
2017-11-21T10:28:57.251Z,3912
2017-11-21T10:30:07.404Z,4008
2017-11-21T10:31:17.624Z,3632
2017-11-21T10:32:27.933Z,3852
2017-11-21T10:33:38.212Z,3948
2017-11-21T10:34:48.505Z,4056
2017-11-21T10:35:58.668Z,4248
2017-11-21T10:37:08.938Z,4396
2017-11-21T10:38:19.258Z,4628
2017-11-21T10:39:29.589Z,4764
2017-11-21T10:40:39.892Z,4176
2017-11-21T10:41:50.159Z,3496
2017-11-21T10:43:00.522Z,3580
2017-11-21T10:44:10.421Z,3272
2017-11-21T10:45:20.432Z,2828
2017-11-21T10:46:31.005Z,2396
2017-11-21T10:47:41.280Z,2032
2017-11-21T10:48:51.286Z,1988
2017-11-21T10:50:01.569Z,1904
2017-11-21T10:51:11.670Z,1820
2017-11-21T10:52:21.930Z,1900
2017-11-21T10:53:32.219Z,2292
2017-11-21T10:54:42.219Z,2392
2017-11-21T10:55:51.996Z,2448
2017-11-21T10:57:02.295Z,2716
2017-11-21T10:58:12.792Z,2956
2017-11-21T10:59:23.106Z,2852
2017-11-21T11:00:33.608Z,2908
2017-11-21T11:01:43.952Z,3272
2017-11-21T11:02:54.268Z,3652
2017-11-21T11:04:04.702Z,3688
2017-11-21T11:05:15.031Z,4076
2017-11-21T11:06:25.239Z,3652
2017-11-21T11:07:35.506Z,3372
2017-11-21T11:08:45.799Z,3556
2017-11-21T11:09:56.198Z,4020
2017-11-21T11:11:06.194Z,4056
2017-11-21T11:12:16.465Z,3716
2017-11-21T11:13:26.493Z,3264
2017-11-21T11:14:36.809Z,2652
2017-11-21T11:15:47.093Z,2616
2017-11-21T11:16:57.134Z,3452
2017-11-21T11:18:07.503Z,4032
2017-11-21T11:19:17.755Z,3740
2017-11-21T11:20:27.765Z,4176
2017-11-21T11:21:38.042Z,3716
2017-11-21T11:22:48.411Z,3308
2017-11-21T11:23:58.695Z,3692
2017-11-21T11:25:08.965Z,3864
2017-11-21T11:26:19.282Z,3196
2017-11-21T11:27:29.625Z,3308
2017-11-21T11:28:39.634Z,3916
2017-11-21T11:29:50.050Z,4380
2017-11-21T11:31:00.349Z,4456
2017-11-21T11:32:10.620Z,3420
2017-11-21T11:33:20.964Z,3980
2017-11-21T11:34:31.330Z,5000
2017-11-21T11:35:41.653Z,4956
2017-11-21T11:36:51.003Z,3840
2017-11-21T11:38:01.330Z,3544
2017-11-21T11:39:11.628Z,3860
2017-11-21T11:40:22.003Z,3608
2017-11-21T11:41:32.018Z,3680
2017-11-21T11:42:42.280Z,3156
2017-11-21T11:43:52.587Z,2796
2017-11-21T11:45:02.981Z,2576
2017-11-21T11:46:12.908Z,2508
2017-11-21T11:47:23.458Z,2468
2017-11-21T11:48:33.502Z,2808
2017-11-21T11:49:43.476Z,3084
2017-11-21T11:50:53.589Z,3012
2017-11-21T11:52:04.176Z,3000
2017-11-21T11:53:14.190Z,3008
2017-11-21T11:54:24.469Z,3036
2017-11-21T11:55:34.880Z,3080
2017-11-21T11:56:45.269Z,3580
2017-11-21T11:57:55.200Z,3520
2017-11-21T11:59:05.329Z,4012
2017-11-21T12:00:15.599Z,4636
2017-11-21T12:01:25.900Z,4124
2017-11-21T12:02:36.194Z,4308
2017-11-21T12:03:46.472Z,4636
2017-11-21T12:04:56.782Z,4576
2017-11-21T12:06:07.011Z,4476
2017-11-21T12:07:17.354Z,4096
2017-11-21T12:08:27.362Z,3608
2017-11-21T12:09:37.661Z,3620
2017-11-21T12:10:48.038Z,3864
2017-11-21T12:11:58.334Z,3732
2017-11-21T12:13:08.381Z,3852
2017-11-21T12:14:33.413Z,4220
2017-11-21T12:15:43.731Z,4092
2017-11-21T12:16:54.035Z,3892
2017-11-21T12:18:04.068Z,4184
2017-11-21T12:19:14.560Z,4332
2017-11-21T12:20:24.932Z,4084
2017-11-21T12:21:34.940Z,3552
2017-11-21T12:22:44.990Z,3296
2017-11-21T12:23:55.331Z,3184
2017-11-21T12:25:05.648Z,3256
2017-11-21T12:26:15.936Z,3240
2017-11-21T12:27:25.995Z,3088
2017-11-21T12:28:36.269Z,2932
2017-11-21T12:29:46.561Z,2788
2017-11-21T12:30:56.949Z,2584
2017-11-21T12:32:07.366Z,2480
2017-11-21T12:33:17.684Z,2540
2017-11-21T12:34:27.957Z,2640
2017-11-21T12:35:38.047Z,2668
2017-11-21T12:36:48.317Z,2768
2017-11-21T12:37:58.656Z,2900
2017-11-21T12:39:08.980Z,2916
2017-11-21T12:40:19.318Z,2780
2017-11-21T12:41:29.748Z,2644
2017-11-21T12:42:40.047Z,2564
2017-11-21T12:43:50.366Z,2572
2017-11-21T12:45:00.216Z,2524
2017-11-21T12:46:10.562Z,2468
2017-11-21T12:47:20.861Z,2444
2017-11-21T12:48:31.193Z,2476
2017-11-21T12:49:41.520Z,2312
2017-11-21T12:50:52.028Z,2136
2017-11-21T12:52:02.314Z,2040
2017-11-21T12:53:12.589Z,1940
2017-11-21T12:54:22.868Z,1884
2017-11-21T12:55:32.952Z,1784
2017-11-21T12:56:43.255Z,1768
2017-11-21T12:57:53.182Z,1788
2017-11-21T12:59:03.160Z,1664
2017-11-21T13:00:13.305Z,1476
2017-11-21T13:01:23.460Z,1388
2017-11-21T13:02:33.468Z,1420
2017-11-21T13:03:43.792Z,1516
2017-11-21T13:04:54.112Z,1620
2017-11-21T13:06:04.418Z,1688
2017-11-21T13:07:14.797Z,1680
2017-11-21T13:08:25.118Z,1648
2017-11-21T13:09:35.174Z,1532
2017-11-21T13:10:45.175Z,1456
2017-11-21T13:11:55.502Z,1500
2017-11-21T13:13:05.685Z,1800
2017-11-21T13:14:15.991Z,2064
2017-11-21T13:15:26.283Z,1984
2017-11-21T13:16:36.357Z,1788
2017-11-21T13:17:46.403Z,1628
2017-11-21T13:18:56.969Z,1428
2017-11-21T13:20:07.255Z,1304
2017-11-21T13:21:17.288Z,1280
2017-11-21T13:22:27.603Z,1356
2017-11-21T13:23:37.670Z,1396
2017-11-21T13:24:47.993Z,1456
2017-11-21T13:25:58.283Z,1488
2017-11-21T13:27:08.585Z,1508
2017-11-21T13:28:18.864Z,1612
2017-11-21T13:29:29.279Z,1684
2017-11-21T13:30:39.666Z,1756
2017-11-21T13:31:49.935Z,1628
2017-11-21T13:33:00.217Z,1532
2017-11-21T13:34:10.546Z,1404
2017-11-21T13:35:20.870Z,1384
2017-11-21T13:36:30.940Z,1436
2017-11-21T13:37:41.002Z,1408
2017-11-21T13:38:51.329Z,1400
2017-11-21T13:40:01.859Z,1468
2017-11-21T13:41:11.963Z,1336
2017-11-21T13:42:22.267Z,1344
2017-11-21T13:43:32.538Z,1520
2017-11-21T13:44:42.889Z,1640
2017-11-21T13:45:53.167Z,1760
2017-11-21T13:47:04.011Z,1836
2017-11-21T13:48:14.325Z,1888
2017-11-21T13:49:24.427Z,1984
2017-11-21T13:50:34.759Z,2036
2017-11-21T13:51:44.590Z,1956
2017-11-21T13:52:55.120Z,1680
2017-11-21T13:54:05.441Z,1376
2017-11-21T13:55:15.764Z,1264
2017-11-21T13:56:26.335Z,1348
2017-11-21T13:57:36.239Z,1412
2017-11-21T13:58:46.582Z,1472
2017-11-21T13:59:56.343Z,1292
2017-11-21T14:01:06.667Z,1060
2017-11-21T14:02:16.945Z,948
2017-11-21T14:03:27.368Z,1004
2017-11-21T14:04:37.442Z,1064
2017-11-21T14:05:47.746Z,980
2017-11-21T14:06:58.063Z,892
2017-11-21T14:08:08.390Z,856
2017-11-21T14:09:18.075Z,832
2017-11-21T14:10:28.360Z,804
2017-11-21T14:11:38.674Z,740
2017-11-21T14:12:48.953Z,700
2017-11-21T14:13:59.513Z,684
2017-11-21T14:15:09.891Z,608
2017-11-21T14:16:20.177Z,548
2017-11-21T14:17:30.475Z,568
2017-11-21T14:18:40.697Z,524
2017-11-21T14:19:50.394Z,464
2017-11-21T14:21:00.789Z,428
2017-11-21T14:22:10.919Z,420
2017-11-21T14:23:21.229Z,444
2017-11-21T14:24:30.617Z,440
2017-11-21T14:25:41.538Z,416
2017-11-21T14:26:51.622Z,388
2017-11-21T14:28:01.530Z,348
2017-11-21T14:29:11.858Z,320
2017-11-21T14:30:22.281Z,308
2017-11-21T14:31:32.586Z,304
2017-11-21T14:32:42.752Z,300
2017-11-21T14:33:53.082Z,316
2017-11-21T14:35:03.385Z,348
2017-11-21T14:36:13.915Z,332
2017-11-21T14:37:24.068Z,316
2017-11-21T14:38:34.068Z,320
2017-11-21T14:39:44.510Z,320
2017-11-21T14:40:54.560Z,328
2017-11-21T14:42:04.899Z,304
2017-11-21T14:43:15.326Z,320
2017-11-21T14:44:25.671Z,364
2017-11-21T14:45:35.635Z,356
2017-11-21T14:46:45.849Z,328
2017-11-21T14:47:56.208Z,328
2017-11-21T14:49:06.491Z,320
2017-11-21T14:50:17.059Z,300
2017-11-21T14:51:27.370Z,284
2017-11-21T14:52:37.452Z,252
2017-11-21T14:53:47.353Z,232
2017-11-21T14:54:57.371Z,220
2017-11-21T14:56:07.419Z,208
2017-11-21T14:57:17.529Z,200
2017-11-21T14:58:27.810Z,184
2017-11-21T14:59:38.133Z,160
2017-11-21T15:00:48.444Z,136
2017-11-21T15:01:58.833Z,120
2017-11-21T15:03:08.833Z,108
2017-11-21T15:04:18.901Z,100
2017-11-21T15:05:28.938Z,92
2017-11-21T15:06:39.273Z,84
2017-11-21T15:07:49.582Z,76
2017-11-21T15:08:59.651Z,68
2017-11-21T15:10:10.004Z,64
2017-11-21T15:11:20.296Z,56
2017-11-21T15:12:30.309Z,48
2017-11-21T15:13:40.606Z,40
2017-11-21T15:14:50.886Z,40
2017-11-21T15:16:01.369Z,36
2017-11-21T15:17:11.532Z,32
2017-11-21T15:18:21.563Z,32
2017-11-21T15:19:31.323Z,24
2017-11-21T15:20:41.594Z,24
2017-11-21T15:21:51.908Z,20
2017-11-21T15:23:02.237Z,20
2017-11-21T15:24:12.270Z,16
2017-11-21T15:25:22.963Z,12
2017-11-21T15:26:32.973Z,8
2017-11-21T15:27:43.490Z,8
2017-11-21T15:28:53.516Z,8
2017-11-21T15:30:03.555Z,4
2017-11-21T15:31:13.842Z,4
2017-11-21T15:32:24.131Z,4
2017-11-21T15:33:34.181Z,4
2017-11-21T15:34:44.532Z,0
2017-11-21T15:35:54.707Z,4
2017-11-21T15:37:04.998Z,4
2017-11-21T15:38:15.347Z,4
2017-11-21T15:39:25.641Z,0
2017-11-21T15:40:35.381Z,0
2017-11-21T15:41:45.690Z,0
2017-11-21T15:42:55.630Z,0
2017-11-21T15:44:05.938Z,0
2017-11-21T15:45:15.908Z,0
2017-11-21T15:46:25.928Z,0
2017-11-21T15:47:36.646Z,0
2017-11-21T15:48:47.927Z,0
2017-11-21T15:49:58.334Z,0
2017-11-21T15:51:09.055Z,0
2017-11-21T15:52:19.094Z,0
2017-11-21T15:53:29.145Z,0
2017-11-21T15:54:39.299Z,0
2017-11-21T15:55:49.739Z,0
2017-11-21T15:56:59.864Z,0
2017-11-21T15:58:09.876Z,0
2017-11-21T15:59:20.195Z,0
2017-11-21T16:00:30.148Z,0
2017-11-21T16:01:40.210Z,0
2017-11-21T16:02:50.608Z,0
2017-11-21T16:04:01.175Z,0
2017-11-21T16:05:11.758Z,0
2017-11-21T16:06:22.086Z,0
2017-11-21T16:07:32.391Z,0
2017-11-21T16:08:42.886Z,0
2017-11-21T16:09:53.043Z,0
2017-11-21T16:11:03.372Z,0
2017-11-21T16:12:13.719Z,0
2017-11-21T16:13:23.864Z,0
2017-11-21T16:14:33.522Z,0
2017-11-21T16:15:43.940Z,0
2017-11-21T16:16:53.620Z,0
2017-11-21T16:18:03.911Z,0
2017-11-21T16:19:13.690Z,0
2017-11-21T16:20:23.711Z,0
2017-11-21T16:21:34.002Z,0
2017-11-21T16:22:44.039Z,0
2017-11-21T16:23:54.421Z,0
2017-11-21T16:25:04.838Z,0
2017-11-21T16:26:15.141Z,0
2017-11-21T16:27:25.194Z,0
2017-11-21T16:28:35.614Z,0